Time;durP1;ratioP1;P1;durP2;ratioP2;P2;SDS_P1;SDS_P2;PMS_P1;PMS_P2;Temp;Humidity;BMP_temperature;BMP_pressure;BME280_temperature;BME280_humidity;BME280_pressure;Samples;Min_cycle;Max_cycle;Signal;HPM_P1;HPM_P2
2024/01/13 00:02:14;;;;;;;2.80;1.38;;;3.50;99.90;;;;;;5024775;28;20117;-70
2024/01/13 00:04:42;;;;;;;3.58;1.25;;;3.50;99.90;;;;;;5013869;28;20045;-71
2024/01/13 00:07:08;;;;;;;5.00;1.50;;;3.50;99.90;;;;;;5026047;28;20060;-70
2024/01/13 00:09:34;;;;;;;3.13;1.20;;;3.50;99.90;;;;;;5026967;28;20037;-71
2024/01/13 00:12:02;;;;;;;4.40;1.20;;;3.50;99.90;;;;;;5024945;28;20391;-71
2024/01/13 00:14:28;;;;;;;6.78;2.30;;;3.50;99.90;;;;;;5010042;28;20428;-71
2024/01/13 00:16:57;;;;;;;3.33;1.52;;;3.50;99.90;;;;;;5026878;28;20389;-70
2024/01/13 00:19:23;;;;;;;3.10;1.27;;;3.50;99.90;;;;;;5008225;28;20053;-70
2024/01/13 00:21:49;;;;;;;4.25;1.10;;;3.50;99.90;;;;;;5025515;28;20060;-70
2024/01/13 00:24:15;;;;;;;5.82;1.63;;;3.50;99.90;;;;;;5006534;28;20195;-70
2024/01/13 00:26:41;;;;;;;6.18;1.67;;;3.50;99.90;;;;;;5027327;28;20541;-72
2024/01/13 00:29:11;;;;;;;5.55;1.48;;;3.50;99.90;;;;;;5023555;28;20042;-71
2024/01/13 00:31:37;;;;;;;4.50;1.40;;;3.50;99.90;;;;;;5025705;28;20057;-70
2024/01/13 00:34:03;;;;;;;2.35;0.90;;;3.50;99.90;;;;;;5032487;28;20461;-71
2024/01/13 00:36:29;;;;;;;5.97;1.25;;;3.50;99.90;;;;;;5030620;28;20041;-71
2024/01/13 00:38:55;;;;;;;2.47;0.90;;;3.50;99.90;;;;;;5028851;28;20033;-70
2024/01/13 00:41:21;;;;;;;4.40;1.23;;;3.50;99.90;;;;;;5025541;28;20103;-71
2024/01/13 00:43:47;;;;;;;6.63;1.63;;;3.50;99.90;;;;;;5023183;28;20044;-71
2024/01/13 00:46:19;;;;;;;9.27;1.50;;;3.50;99.90;;;;;;5025826;28;20117;-70
2024/01/13 00:48:45;;;;;;;5.40;1.73;;;3.50;99.90;;;;;;5008858;28;20220;-70
2024/01/13 00:51:12;;;;;;;7.70;1.95;;;3.50;99.90;;;;;;5028152;28;20398;-70
2024/01/13 00:53:38;;;;;;;7.00;1.85;;;3.60;99.90;;;;;;5026311;28;20088;-70
2024/01/13 00:56:06;;;;;;;7.82;2.10;;;3.60;99.90;;;;;;5026399;28;20121;-70
2024/01/13 00:58:32;;;;;;;6.13;1.77;;;3.50;99.90;;;;;;5020824;28;20040;-71
2024/01/13 01:00:59;;;;;;;5.57;2.22;;;3.60;99.90;;;;;;5021464;28;20049;-70
2024/01/13 01:03:26;;;;;;;5.50;2.13;;;3.50;99.90;;;;;;5026715;28;20063;-71
2024/01/13 01:05:54;;;;;;;7.68;2.00;;;3.60;99.90;;;;;;5026235;28;20056;-70
2024/01/13 01:08:20;;;;;;;5.03;1.88;;;3.60;99.90;;;;;;5009085;28;20033;-72
2024/01/13 01:10:47;;;;;;;6.15;1.75;;;3.60;99.90;;;;;;5023356;28;20525;-71
2024/01/13 01:13:13;;;;;;;;;;;3.60;99.90;;;;;;5025759;28;20072;-71
2024/01/13 01:15:39;;;;;;;10.20;1.80;;;3.60;99.90;;;;;;5024013;28;19960;-71
2024/01/13 01:18:05;;;;;;;7.35;2.22;;;3.60;99.90;;;;;;5004139;28;20045;-70
2024/01/13 01:20:31;;;;;;;9.30;2.92;;;3.60;99.90;;;;;;5026174;28;20049;-71
2024/01/13 01:22:58;;;;;;;9.40;2.53;;;3.60;99.90;;;;;;5025871;28;20132;-71
2024/01/13 01:25:24;;;;;;;10.38;2.55;;;3.60;99.90;;;;;;5020586;28;20350;-71
2024/01/13 01:27:52;;;;;;;5.57;2.30;;;3.60;99.90;;;;;;5025012;28;20045;-71
2024/01/13 01:30:18;;;;;;;15.00;2.60;;;3.60;99.90;;;;;;5022464;28;20049;-71
2024/01/13 01:32:45;;;;;;;9.75;2.53;;;3.60;99.90;;;;;;5025165;28;20045;-71
2024/01/13 01:35:11;;;;;;;;;;;3.60;99.90;;;;;;5018335;28;20050;-70
2024/01/13 01:37:36;;;;;;;6.05;1.67;;;3.60;99.90;;;;;;5002727;28;19921;-70
2024/01/13 01:40:03;;;;;;;7.20;2.00;;;3.60;99.90;;;;;;5022498;28;20649;-70
2024/01/13 01:42:29;;;;;;;4.65;1.90;;;3.60;99.90;;;;;;5022474;28;20478;-70
2024/01/13 01:44:55;;;;;;;7.17;1.93;;;3.60;99.90;;;;;;5017237;28;20073;-70
2024/01/13 01:47:21;;;;;;;5.20;1.70;;;3.60;99.90;;;;;;5023681;28;20049;-71
2024/01/13 01:49:47;;;;;;;;;;;3.60;99.90;;;;;;5023592;28;20060;-71
2024/01/13 01:52:15;;;;;;;5.43;1.60;;;3.60;99.90;;;;;;5020589;28;19987;-71
2024/01/13 01:54:42;;;;;;;5.05;2.03;;;3.60;99.90;;;;;;5021020;28;20047;-71
2024/01/13 01:57:14;;;;;;;9.60;2.22;;;3.60;99.90;;;;;;5005772;28;20047;-71
2024/01/13 01:59:40;;;;;;;7.07;1.83;;;3.60;99.90;;;;;;5021495;28;20099;-71
2024/01/13 02:02:09;;;;;;;7.80;1.93;;;3.60;99.90;;;;;;5020208;28;20085;-70
2024/01/13 02:04:35;;;;;;;8.52;1.98;;;3.60;99.90;;;;;;5024210;28;20051;-71
2024/01/13 02:07:01;;;;;;;5.93;1.87;;;3.60;99.90;;;;;;5003533;28;20482;-70
2024/01/13 02:09:29;;;;;;;8.50;1.80;;;3.60;99.90;;;;;;5016097;28;20442;-71
2024/01/13 02:11:55;;;;;;;9.10;1.85;;;3.60;99.90;;;;;;5019754;28;20080;-70
2024/01/13 02:14:20;;;;;;;5.23;1.77;;;3.60;99.90;;;;;;5019718;28;20045;-70
2024/01/13 02:16:46;;;;;;;3.57;2.13;;;3.60;99.90;;;;;;5009254;28;20037;-70
2024/01/13 02:19:12;;;;;;;7.07;1.75;;;3.60;99.90;;;;;;5028796;28;20061;-70
2024/01/13 02:21:38;;;;;;;3.87;1.80;;;3.60;99.90;;;;;;5018707;28;20409;-70
2024/01/13 02:24:04;;;;;;;6.15;2.08;;;3.50;99.90;;;;;;5023627;28;20057;-70
2024/01/13 02:26:34;;;;;;;6.50;1.83;;;3.50;99.90;;;;;;5024414;28;20045;-71
2024/01/13 02:28:59;;;;;;;7.35;1.92;;;3.60;99.90;;;;;;5021769;28;20053;-70
2024/01/13 02:31:25;;;;;;;3.77;1.73;;;3.50;99.90;;;;;;5027678;28;20335;-71
2024/01/13 02:33:51;;;;;;;10.93;1.80;;;3.50;99.90;;;;;;5021591;28;21498;-70
2024/01/13 02:36:16;;;;;;;5.63;2.03;;;3.50;99.90;;;;;;5022589;28;20488;-70
2024/01/13 02:38:42;;;;;;;10.17;1.67;;;3.50;99.90;;;;;;5025764;28;20045;-71
2024/01/13 02:41:08;;;;;;;5.53;1.83;;;3.40;99.90;;;;;;5025194;28;20332;-70
2024/01/13 02:43:36;;;;;;;5.00;1.55;;;3.40;99.90;;;;;;5024869;28;20076;-70
2024/01/13 02:46:05;;;;;;;5.38;1.48;;;3.40;99.90;;;;;;5028807;28;20138;-70
2024/01/13 02:48:39;;;;;;;6.15;1.90;;;3.40;99.90;;;;;;5028973;28;20052;-71
2024/01/13 02:51:08;;;;;;;9.05;2.63;;;3.40;99.90;;;;;;5025506;28;20442;-71
2024/01/13 02:53:33;;;;;;;3.90;1.58;;;3.50;99.90;;;;;;5025525;28;20069;-71
2024/01/13 02:55:59;;;;;;;12.13;2.23;;;3.40;99.90;;;;;;5022721;28;20131;-71
2024/01/13 02:58:24;;;;;;;4.97;1.83;;;3.40;99.90;;;;;;5024856;28;20044;-70
2024/01/13 03:00:50;;;;;;;8.97;1.67;;;3.50;99.90;;;;;;5024126;28;20784;-70
2024/01/13 03:03:16;;;;;;;5.13;1.70;;;3.50;99.90;;;;;;5020255;28;20048;-70
2024/01/13 03:05:41;;;;;;;3.70;1.40;;;3.50;99.90;;;;;;5027067;28;20103;-70
2024/01/13 03:08:10;;;;;;;6.13;2.07;;;3.50;99.90;;;;;;5023496;28;20425;-71
2024/01/13 03:10:35;;;;;;;4.85;1.63;;;3.50;99.90;;;;;;5022108;28;20076;-70
2024/01/13 03:13:01;;;;;;;4.93;1.57;;;3.50;99.90;;;;;;5023857;28;20187;-71
2024/01/13 03:15:26;;;;;;;12.20;2.10;;;3.50;99.90;;;;;;5023087;28;20033;-71
2024/01/13 03:17:52;;;;;;;8.80;2.50;;;3.50;99.90;;;;;;5021175;28;20037;-71
2024/01/13 03:20:19;;;;;;;4.82;1.92;;;3.60;99.90;;;;;;5025650;28;20421;-70
2024/01/13 03:22:45;;;;;;;6.13;2.50;;;3.50;99.90;;;;;;5025207;28;20067;-70
2024/01/13 03:25:16;;;;;;;5.78;1.98;;;3.50;99.90;;;;;;5011800;28;20060;-71
2024/01/13 03:27:43;;;;;;;11.23;1.90;;;3.50;99.90;;;;;;5024781;28;20050;-72
2024/01/13 03:30:12;;;;;;;7.20;2.20;;;3.50;99.90;;;;;;5021586;28;20124;-71
2024/01/13 03:32:44;;;;;;;7.32;1.70;;;3.50;99.90;;;;;;5025602;28;20052;-72
2024/01/13 03:35:10;;;;;;;5.30;1.70;;;3.50;99.90;;;;;;5008979;28;20350;-71
2024/01/13 03:37:36;;;;;;;10.40;1.90;;;3.50;99.90;;;;;;5028743;28;20111;-70
2024/01/13 03:40:06;;;;;;;7.82;1.75;;;3.50;99.90;;;;;;5027050;28;20417;-71
2024/01/13 03:42:32;;;;;;;7.40;2.00;;;3.50;99.90;;;;;;5022581;28;20124;-70
2024/01/13 03:44:58;;;;;;;7.10;1.83;;;3.50;99.90;;;;;;5026978;28;20379;-71
2024/01/13 03:47:25;;;;;;;5.97;1.65;;;3.50;99.90;;;;;;5031763;28;20580;-71
2024/01/13 03:49:52;;;;;;;5.05;1.80;;;3.50;99.90;;;;;;5011073;28;20641;-69
2024/01/13 03:52:18;;;;;;;5.22;2.00;;;3.50;99.90;;;;;;4961168;28;20250;-69
2024/01/13 03:54:50;;;;;;;6.18;2.00;;;3.50;99.90;;;;;;4948273;28;20092;-69
2024/01/13 03:57:16;;;;;;;5.45;1.50;;;3.50;99.90;;;;;;5024195;28;20127;-71
2024/01/13 03:59:42;;;;;;;3.95;2.08;;;3.60;99.90;;;;;;5020586;28;20076;-71
2024/01/13 04:02:08;;;;;;;3.50;1.10;;;3.60;99.90;;;;;;5019822;28;20041;-71
2024/01/13 04:04:34;;;;;;;6.65;2.03;;;3.60;99.90;;;;;;5023777;28;20045;-71
2024/01/13 04:07:00;;;;;;;3.58;1.23;;;3.60;99.90;;;;;;5022450;28;20357;-70
2024/01/13 04:09:26;;;;;;;6.33;1.43;;;3.60;99.90;;;;;;5023317;28;20045;-70
2024/01/13 04:11:51;;;;;;;4.27;1.60;;;3.50;99.90;;;;;;5019655;28;20045;-70
2024/01/13 04:14:17;;;;;;;4.20;1.60;;;3.60;99.90;;;;;;5019316;28;20049;-70
2024/01/13 04:16:45;;;;;;;7.40;1.37;;;3.60;99.90;;;;;;5021811;28;20068;-70
2024/01/13 04:19:11;;;;;;;4.88;1.33;;;3.60;99.90;;;;;;5023556;28;20050;-70
2024/01/13 04:21:36;;;;;;;5.33;1.20;;;3.60;99.90;;;;;;5023176;28;20037;-70
2024/01/13 04:24:04;;;;;;;3.17;1.30;;;3.60;99.90;;;;;;5004995;28;20128;-70
2024/01/13 04:26:32;;;;;;;2.85;1.25;;;3.60;99.90;;;;;;5021733;28;20053;-70
2024/01/13 04:28:58;;;;;;;6.45;1.77;;;3.60;99.90;;;;;;5009347;28;20045;-70
2024/01/13 04:31:24;;;;;;;5.17;1.60;;;3.60;99.90;;;;;;5019805;28;20520;-70
2024/01/13 04:33:49;;;;;;;6.93;1.33;;;3.60;99.90;;;;;;5020009;28;20046;-70
2024/01/13 04:36:15;;;;;;;2.90;1.07;;;3.60;99.90;;;;;;5021716;28;20132;-70
2024/01/13 04:38:43;;;;;;;4.37;1.40;;;3.60;99.90;;;;;;5005002;28;20044;-70
2024/01/13 04:41:08;;;;;;;9.63;1.95;;;3.50;99.90;;;;;;5021327;28;20454;-70
2024/01/13 04:43:37;;;;;;;4.17;1.07;;;3.60;99.90;;;;;;5022140;28;20172;-70
2024/01/13 04:46:03;;;;;;;3.17;1.40;;;3.50;99.90;;;;;;5019355;28;20040;-70
2024/01/13 04:48:30;;;;;;;3.08;1.30;;;3.60;99.90;;;;;;5022107;28;20520;-70
2024/01/13 04:50:55;;;;;;;3.20;1.83;;;3.60;99.90;;;;;;5021614;28;20050;-70
2024/01/13 04:53:23;;;;;;;3.40;1.10;;;3.60;99.90;;;;;;5023372;28;22279;-70
2024/01/13 04:55:52;;;;;;;4.60;1.37;;;3.60;99.90;;;;;;5019549;28;20075;-70
2024/01/13 04:58:18;;;;;;;8.10;1.25;;;3.60;99.90;;;;;;5023733;28;20040;-70
2024/01/13 05:00:43;;;;;;;4.67;1.40;;;3.60;99.90;;;;;;5020046;28;20049;-70
2024/01/13 05:03:09;;;;;;;4.23;0.90;;;3.60;99.90;;;;;;5019574;28;21129;-70
2024/01/13 05:05:35;;;;;;;2.27;0.77;;;3.60;99.90;;;;;;5023859;28;20041;-70
2024/01/13 05:08:00;;;;;;;2.35;0.90;;;3.60;99.90;;;;;;5017439;28;20628;-70
2024/01/13 05:10:27;;;;;;;8.23;1.50;;;3.60;99.90;;;;;;5023299;28;20068;-70
2024/01/13 05:12:52;;;;;;;2.13;0.80;;;3.60;99.90;;;;;;5019919;28;20546;-70
2024/01/13 05:15:18;;;;;;;2.17;1.03;;;3.60;99.90;;;;;;5022576;28;20180;-70
2024/01/13 05:17:44;;;;;;;3.77;0.97;;;3.60;99.90;;;;;;5020761;28;20041;-70
2024/01/13 05:20:10;;;;;;;2.97;0.70;;;3.50;99.90;;;;;;5017199;28;20034;-70
2024/01/13 05:22:35;;;;;;;6.05;1.17;;;3.60;99.90;;;;;;5023611;28;20033;-70
2024/01/13 05:25:01;;;;;;;3.37;0.87;;;3.60;99.90;;;;;;5021238;28;20395;-70
2024/01/13 05:27:27;;;;;;;2.60;0.90;;;3.50;99.90;;;;;;5017490;28;20124;-70
2024/01/13 05:29:52;;;;;;;1.87;0.63;;;3.50;99.90;;;;;;5017156;28;20053;-69
2024/01/13 05:32:18;;;;;;;1.63;0.40;;;3.60;99.90;;;;;;5023432;28;20048;-69
2024/01/13 05:34:44;;;;;;;1.00;0.50;;;3.50;99.90;;;;;;5020757;28;20033;-70
2024/01/13 05:37:10;;;;;;;1.67;0.70;;;3.50;99.90;;;;;;5021015;28;20410;-69
2024/01/13 05:39:35;;;;;;;3.00;0.50;;;3.50;99.90;;;;;;5019303;28;20050;-70
2024/01/13 05:42:01;;;;;;;2.33;0.60;;;3.50;99.90;;;;;;5021800;28;20050;-70
2024/01/13 05:44:27;;;;;;;2.00;0.40;;;3.50;99.90;;;;;;5019168;28;20052;-70
2024/01/13 05:46:52;;;;;;;3.28;0.57;;;3.50;99.90;;;;;;5021090;28;20071;-70
2024/01/13 05:49:18;;;;;;;1.30;0.57;;;3.50;99.90;;;;;;5017563;28;20061;-70
2024/01/13 05:51:44;;;;;;;2.10;0.77;;;3.50;99.90;;;;;;5022449;28;20448;-71
2024/01/13 05:54:10;;;;;;;1.53;0.53;;;3.50;99.90;;;;;;5024471;28;20038;-71
2024/01/13 05:56:36;;;;;;;1.88;0.70;;;3.50;99.90;;;;;;5028848;28;20206;-69
2024/01/13 05:59:01;;;;;;;3.13;0.65;;;3.50;99.90;;;;;;5025175;28;20053;-68
2024/01/13 06:01:27;;;;;;;1.80;0.80;;;3.50;99.90;;;;;;5026195;28;20171;-69
2024/01/13 06:03:55;;;;;;;1.33;0.50;;;3.50;99.90;;;;;;5021417;28;20506;-69
2024/01/13 06:06:21;;;;;;;3.35;0.57;;;3.50;99.90;;;;;;5028237;28;20087;-69
2024/01/13 06:08:47;;;;;;;1.07;0.63;;;3.50;99.90;;;;;;5022127;28;20054;-69
2024/01/13 06:11:14;;;;;;;0.83;0.40;;;3.50;99.90;;;;;;5027130;28;20045;-69
2024/01/13 06:13:40;;;;;;;1.58;0.60;;;3.50;99.90;;;;;;5024754;28;20034;-69
2024/01/13 06:16:06;;;;;;;0.73;0.43;;;3.50;99.90;;;;;;5020704;28;20503;-69
2024/01/13 06:18:31;;;;;;;4.00;0.50;;;3.50;99.90;;;;;;5028042;28;20061;-69
2024/01/13 06:20:57;;;;;;;1.13;0.60;;;3.50;99.90;;;;;;5024066;28;20118;-69
2024/01/13 06:23:22;;;;;;;5.57;0.97;;;3.50;99.90;;;;;;5022790;28;20042;-68
2024/01/13 06:25:48;;;;;;;1.37;0.70;;;3.50;99.90;;;;;;5021685;28;20091;-69
2024/01/13 06:28:14;;;;;;;5.13;0.77;;;3.50;99.90;;;;;;5025089;28;20524;-69
2024/01/13 06:30:40;;;;;;;3.07;0.70;;;3.60;99.90;;;;;;5029403;28;20049;-69
2024/01/13 06:33:05;;;;;;;1.93;0.50;;;3.60;99.90;;;;;;5022702;28;20502;-69
2024/01/13 06:35:31;;;;;;;2.57;0.53;;;3.60;99.90;;;;;;5022764;28;20033;-69
2024/01/13 06:37:56;;;;;;;1.00;0.53;;;3.60;99.90;;;;;;5021987;28;20049;-69
2024/01/13 06:40:22;;;;;;;1.40;0.60;;;3.60;99.90;;;;;;5026152;28;20045;-69
2024/01/13 06:42:48;;;;;;;3.50;0.40;;;3.60;99.90;;;;;;5025655;28;20045;-69
2024/01/13 06:45:13;;;;;;;2.80;0.70;;;3.60;99.90;;;;;;5008413;28;20430;-68
2024/01/13 06:47:42;;;;;;;3.73;0.57;;;3.50;99.90;;;;;;5021634;28;20106;-69
2024/01/13 06:50:10;;;;;;;1.27;0.40;;;3.60;99.90;;;;;;5018921;28;20049;-69
2024/01/13 06:52:37;;;;;;;3.38;0.38;;;3.50;99.90;;;;;;5017380;28;20100;-69
2024/01/13 06:55:03;;;;;;;;;;;3.50;99.90;;;;;;5022186;28;20042;-69
2024/01/13 06:57:29;;;;;;;0.80;0.32;;;3.50;99.90;;;;;;5023887;28;19928;-69
2024/01/13 06:59:54;;;;;;;0.53;0.30;;;3.50;99.90;;;;;;5018820;28;20034;-69
2024/01/13 07:02:20;;;;;;;0.80;0.37;;;3.60;99.90;;;;;;5016552;28;20110;-69
2024/01/13 07:04:50;;;;;;;0.90;0.30;;;3.50;99.90;;;;;;5022356;28;20125;-69
2024/01/13 07:07:16;;;;;;;1.63;0.40;;;3.60;99.90;;;;;;5020369;28;20168;-69
2024/01/13 07:09:42;;;;;;;1.58;0.35;;;3.60;99.90;;;;;;5009162;28;20158;-69
2024/01/13 07:12:07;;;;;;;2.83;0.55;;;3.60;99.90;;;;;;5024308;28;20512;-69
2024/01/13 07:14:33;;;;;;;1.47;0.50;;;3.60;99.90;;;;;;5024605;28;20056;-68
2024/01/13 07:16:59;;;;;;;5.67;1.07;;;3.60;99.90;;;;;;5018924;28;20057;-69
2024/01/13 07:19:24;;;;;;;2.27;0.60;;;3.60;99.90;;;;;;5025832;28;20045;-69
2024/01/13 07:21:50;;;;;;;3.63;0.90;;;3.60;99.90;;;;;;5022190;28;20291;-69
2024/01/13 07:24:15;;;;;;;5.30;1.40;;;3.60;99.90;;;;;;5023771;28;20405;-69
2024/01/13 07:26:44;;;;;;;3.87;1.20;;;3.60;99.90;;;;;;5023930;28;20044;-69
2024/01/13 07:29:09;;;;;;;6.65;1.83;;;3.60;99.90;;;;;;5024544;28;20405;-69
2024/01/13 07:31:35;;;;;;;4.40;2.30;;;3.60;99.90;;;;;;5023448;28;20050;-69
2024/01/13 07:34:01;;;;;;;5.93;2.37;;;3.60;99.90;;;;;;5018914;28;20196;-69
2024/01/13 07:36:29;;;;;;;6.90;2.92;;;3.60;99.90;;;;;;5005304;28;20037;-69
2024/01/13 07:38:55;;;;;;;6.72;2.90;;;3.60;99.90;;;;;;5007332;28;20045;-69
2024/01/13 07:41:21;;;;;;;6.00;2.60;;;3.60;99.90;;;;;;5023847;28;20072;-69
2024/01/13 07:43:47;;;;;;;14.80;3.73;;;3.60;99.90;;;;;;5021141;28;20283;-69
2024/01/13 07:46:12;;;;;;;7.77;3.23;;;3.60;99.90;;;;;;5022821;28;20382;-69
2024/01/13 07:48:40;;;;;;;10.00;4.30;;;3.70;99.90;;;;;;5025845;28;20037;-69
2024/01/13 07:51:06;;;;;;;16.20;5.28;;;3.60;99.90;;;;;;5019839;28;20090;-68
2024/01/13 07:53:32;;;;;;;15.45;6.43;;;3.60;99.90;;;;;;5020265;28;20041;-69
2024/01/13 07:55:58;;;;;;;20.37;8.07;;;3.60;99.90;;;;;;5024390;28;20042;-70
2024/01/13 07:58:24;;;;;;;26.52;9.52;;;3.60;99.90;;;;;;5023411;28;20041;-69
2024/01/13 08:00:50;;;;;;;19.97;10.23;;;3.70;99.90;;;;;;5020152;28;20095;-69
2024/01/13 08:03:15;;;;;;;24.85;10.57;;;3.70;99.90;;;;;;5021468;28;20045;-70
2024/01/13 08:05:41;;;;;;;30.50;12.50;;;3.70;99.90;;;;;;5019001;28;20067;-69
2024/01/13 08:08:07;;;;;;;33.38;12.82;;;3.70;99.90;;;;;;5002482;28;20042;-69
2024/01/13 08:10:36;;;;;;;34.53;12.83;;;3.70;99.90;;;;;;5021448;28;20045;-69
2024/01/13 08:13:02;;;;;;;28.92;13.60;;;3.80;99.90;;;;;;5022780;28;20295;-69
2024/01/13 08:15:28;;;;;;;38.53;14.02;;;3.80;99.90;;;;;;5019966;28;21048;-69
2024/01/13 08:17:54;;;;;;;40.40;14.73;;;3.80;99.90;;;;;;5031896;28;20370;-70
2024/01/13 08:20:20;;;;;;;36.57;14.70;;;3.80;99.90;;;;;;5028068;28;20388;-69
2024/01/13 08:22:48;;;;;;;34.45;14.52;;;3.80;99.90;;;;;;5021513;28;20128;-69
2024/01/13 08:25:14;;;;;;;36.83;14.55;;;3.80;99.90;;;;;;5022786;28;20304;-69
2024/01/13 08:27:40;;;;;;;36.20;14.77;;;3.80;99.90;;;;;;5024175;28;20084;-69
2024/01/13 08:30:06;;;;;;;34.97;13.93;;;3.80;99.90;;;;;;5027785;28;20053;-69
2024/01/13 08:32:31;;;;;;;34.78;13.75;;;3.80;99.90;;;;;;5024280;28;20120;-69
2024/01/13 08:34:58;;;;;;;39.50;16.57;;;3.80;99.90;;;;;;5023683;28;20162;-69
2024/01/13 08:37:24;;;;;;;41.30;15.60;;;3.80;99.90;;;;;;5024315;28;20052;-69
2024/01/13 08:39:50;;;;;;;41.97;17.13;;;3.80;99.90;;;;;;5019145;28;20041;-69
2024/01/13 08:42:15;;;;;;;46.20;19.90;;;3.80;99.90;;;;;;5019200;28;20098;-69
2024/01/13 08:44:41;;;;;;;42.43;18.73;;;3.80;99.90;;;;;;5027878;28;20414;-69
2024/01/13 08:47:07;;;;;;;40.03;16.67;;;3.80;99.90;;;;;;5032580;28;20505;-69
2024/01/13 08:49:32;;;;;;;50.13;18.07;;;3.80;99.90;;;;;;5022278;28;20041;-69
2024/01/13 08:51:58;;;;;;;43.33;18.30;;;3.80;99.90;;;;;;5019960;28;20524;-69
2024/01/13 08:54:24;;;;;;;48.00;18.20;;;3.80;99.90;;;;;;5019255;28;20041;-69
2024/01/13 08:56:50;;;;;;;45.07;17.53;;;3.80;99.90;;;;;;5019712;28;20322;-69
2024/01/13 08:59:18;;;;;;;45.45;19.83;;;3.80;99.90;;;;;;5031489;28;20045;-69
2024/01/13 09:01:44;;;;;;;51.95;20.38;;;3.80;99.90;;;;;;5024854;28;20179;-69
2024/01/13 09:04:10;;;;;;;53.05;20.52;;;3.80;99.90;;;;;;5016954;28;20482;-69
2024/01/13 09:06:35;;;;;;;50.80;20.77;;;3.80;99.90;;;;;;5020380;28;20092;-69
2024/01/13 09:09:02;;;;;;;48.37;19.67;;;3.80;99.90;;;;;;5019365;28;20041;-69
2024/01/13 09:11:29;;;;;;;45.92;21.58;;;3.80;99.90;;;;;;5019460;28;20056;-69
2024/01/13 09:13:54;;;;;;;47.85;20.48;;;3.80;99.90;;;;;;5019618;28;20414;-69
2024/01/13 09:16:20;;;;;;;52.50;21.60;;;3.80;99.90;;;;;;5030687;28;20044;-69
2024/01/13 09:18:45;;;;;;;57.10;23.10;;;3.80;99.90;;;;;;5022678;28;20037;-69
2024/01/13 09:21:20;;;;;;;49.43;21.43;;;3.80;99.90;;;;;;5024522;28;20478;-69
2024/01/13 09:23:47;;;;;;;56.63;25.40;;;3.80;99.90;;;;;;5023044;28;20069;-69
2024/01/13 09:26:12;;;;;;;58.63;25.92;;;3.80;99.90;;;;;;5031168;28;20041;-69
2024/01/13 09:28:38;;;;;;;53.80;23.70;;;3.90;99.90;;;;;;5029177;28;20111;-70
2024/01/13 09:31:04;;;;;;;54.17;23.07;;;3.90;99.90;;;;;;5028463;28;20041;-69
2024/01/13 09:33:29;;;;;;;50.97;21.52;;;3.90;99.90;;;;;;5034237;28;20113;-69
2024/01/13 09:35:55;;;;;;;55.63;22.03;;;3.90;99.90;;;;;;5024328;28;20073;-69
2024/01/13 09:38:21;;;;;;;50.40;22.00;;;3.90;99.90;;;;;;5026432;28;20042;-69
2024/01/13 09:40:47;;;;;;;45.80;20.57;;;3.90;99.90;;;;;;5024909;28;20072;-70
2024/01/13 09:43:38;;;;;;;44.40;21.37;;;3.90;99.90;;;;;;5028406;28;20034;-69
2024/01/13 09:46:03;;;;;;;48.40;20.02;;;3.90;99.90;;;;;;5024629;28;20049;-69
2024/01/13 09:48:29;;;;;;;42.03;19.50;;;4.00;99.90;;;;;;5008405;28;20075;-69
2024/01/13 09:50:58;;;;;;;46.00;21.27;;;4.00;99.90;;;;;;5026696;28;20049;-69
2024/01/13 09:53:28;;;;;;;42.83;19.33;;;4.00;99.90;;;;;;5032513;28;20038;-69
2024/01/13 09:56:03;;;;;;;44.33;19.05;;;4.00;99.90;;;;;;5020772;28;20095;-69
2024/01/13 09:58:29;;;;;;;40.00;17.48;;;4.00;99.90;;;;;;5026866;28;20037;-69
2024/01/13 10:00:56;;;;;;;46.85;19.58;;;4.00;99.90;;;;;;5023647;28;20599;-69
2024/01/13 10:03:22;;;;;;;40.72;17.25;;;4.00;99.90;;;;;;5028994;28;20211;-69
2024/01/13 10:05:50;;;;;;;35.35;17.35;;;4.00;99.90;;;;;;5026240;28;20196;-69
2024/01/13 10:08:22;;;;;;;42.78;17.95;;;4.00;99.90;;;;;;5022908;28;20099;-69
2024/01/13 10:10:50;;;;;;;42.38;18.38;;;4.10;99.90;;;;;;5022192;28;20045;-69
2024/01/13 10:13:15;;;;;;;43.72;18.95;;;4.10;99.90;;;;;;5028133;28;20041;-69
2024/01/13 10:15:41;;;;;;;46.73;19.77;;;4.10;99.90;;;;;;5026706;28;20044;-70
2024/01/13 10:18:07;;;;;;;45.17;18.67;;;4.10;99.90;;;;;;5028853;28;20514;-70
2024/01/13 10:20:33;;;;;;;47.07;20.57;;;4.10;99.90;;;;;;5027653;28;20075;-70
2024/01/13 10:23:01;;;;;;;40.05;15.88;;;4.10;99.90;;;;;;5030663;28;20581;-70
2024/01/13 10:25:26;;;;;;;32.05;14.65;;;4.10;99.90;;;;;;5025160;28;20042;-69
2024/01/13 10:27:52;;;;;;;34.90;16.00;;;4.10;99.90;;;;;;5028524;28;20044;-70
2024/01/13 10:30:17;;;;;;;36.93;16.47;;;4.10;99.90;;;;;;5025913;28;20038;-69
2024/01/13 10:32:43;;;;;;;34.90;16.30;;;4.10;99.90;;;;;;5027335;28;20049;-69
2024/01/13 10:35:15;;;;;;;40.80;14.30;;;4.10;99.90;;;;;;5023495;28;20410;-74
2024/01/13 10:37:41;;;;;;;27.13;12.30;;;4.20;99.90;;;;;;5025934;28;20041;-71
2024/01/13 10:40:08;;;;;;;25.37;12.47;;;4.20;99.90;;;;;;5022897;28;20359;-69
2024/01/13 10:42:38;;;;;;;31.13;13.75;;;4.20;99.90;;;;;;5028560;28;20085;-69
2024/01/13 10:45:09;;;;;;;24.80;11.93;;;4.20;99.90;;;;;;5023681;28;20060;-69
2024/01/13 10:47:45;;;;;;;27.00;12.25;;;4.30;99.90;;;;;;5024626;28;20073;-69
2024/01/13 10:50:11;;;;;;;28.95;13.23;;;4.20;99.90;;;;;;5018094;28;20287;-70
2024/01/13 10:52:53;;;;;;;29.87;12.47;;;4.30;99.90;;;;;;5022624;28;20502;-71
2024/01/13 10:55:19;;;;;;;26.83;11.63;;;4.30;99.90;;;;;;4999127;28;20046;-69
2024/01/13 10:57:47;;;;;;;;;;;4.30;99.90;;;;;;5025633;28;20040;-70
2024/01/13 11:00:13;;;;;;;21.58;9.82;;;4.30;99.90;;;;;;5021008;28;19931;-69
2024/01/13 11:02:42;;;;;;;29.95;11.18;;;4.30;99.90;;;;;;5024812;28;20072;-69
2024/01/13 11:05:10;;;;;;;22.30;10.57;;;4.30;99.90;;;;;;5030965;28;20049;-70
2024/01/13 11:07:37;;;;;;;25.70;10.75;;;4.30;99.90;;;;;;5010764;28;20033;-70
2024/01/13 11:10:09;;;;;;;20.35;9.15;;;4.30;99.90;;;;;;5026648;28;20461;-70
2024/01/13 11:12:40;;;;;;;20.08;9.45;;;4.40;99.90;;;;;;5021909;28;20514;-70
2024/01/13 11:15:15;;;;;;;23.17;9.65;;;4.40;99.90;;;;;;5028495;28;20049;-70
2024/01/13 11:17:41;;;;;;;23.88;9.85;;;4.40;99.90;;;;;;5009058;28;20071;-70
2024/01/13 11:20:10;;;;;;;21.00;9.57;;;4.50;99.90;;;;;;5003882;28;20042;-70
2024/01/13 11:22:37;;;;;;;20.98;8.82;;;4.50;99.90;;;;;;5007426;28;20327;-70
2024/01/13 11:25:26;;;;;;;23.15;9.18;;;4.60;99.90;;;;;;5026495;28;20045;-70
2024/01/13 11:27:58;;;;;;;18.83;9.07;;;4.60;99.90;;;;;;5022066;28;20072;-69
2024/01/13 11:30:30;;;;;;;21.02;8.50;;;4.60;99.90;;;;;;5025055;28;20046;-70
2024/01/13 11:32:56;;;;;;;19.45;8.02;;;4.60;99.90;;;;;;5026064;28;20076;-70
2024/01/13 11:35:22;;;;;;;15.43;7.20;;;4.60;99.90;;;;;;5020907;28;20069;-70
2024/01/13 11:37:54;;;;;;;17.27;7.03;;;4.60;99.90;;;;;;5025231;28;20049;-70
2024/01/13 11:40:20;;;;;;;17.98;7.55;;;4.70;99.90;;;;;;5024738;28;20065;-70
2024/01/13 11:42:46;;;;;;;12.45;6.45;;;4.70;99.90;;;;;;5026819;28;20103;-70
2024/01/13 11:45:15;;;;;;;14.13;6.47;;;4.80;99.90;;;;;;5026612;28;20490;-70
2024/01/13 11:47:41;;;;;;;13.73;5.22;;;4.80;99.90;;;;;;5009781;28;20526;-70
2024/01/13 11:50:36;;;;;;;16.03;5.40;;;4.80;99.90;;;;;;5019275;28;20041;-70
2024/01/13 11:53:01;;;;;;;12.20;4.68;;;4.90;99.90;;;;;;5028748;28;20494;-70
2024/01/13 11:55:30;;;;;;;12.30;4.97;;;4.90;99.90;;;;;;5022698;28;20037;-70
2024/01/13 11:57:58;;;;;;;8.90;3.92;;;4.80;99.90;;;;;;5026119;28;20032;-70
2024/01/13 12:00:23;;;;;;;9.07;4.55;;;4.90;99.90;;;;;;5026758;28;20077;-70
2024/01/13 12:02:50;;;;;;;12.23;4.60;;;4.90;99.90;;;;;;5024720;28;20136;-70
2024/01/13 12:05:16;;;;;;;13.93;4.18;;;5.00;99.90;;;;;;5032699;28;20045;-70
2024/01/13 12:07:41;;;;;;;11.30;3.73;;;5.00;99.90;;;;;;5027710;28;20036;-70
2024/01/13 12:10:08;;;;;;;11.90;3.43;;;5.00;99.90;;;;;;5022802;28;20553;-70
2024/01/13 12:12:33;;;;;;;;;;;5.00;99.90;;;;;;5018562;28;20045;-70
2024/01/13 12:15:01;;;;;;;;;;;5.00;99.90;;;;;;5009029;28;19928;-70
2024/01/13 12:17:27;;;;;;;;;;;5.00;99.90;;;;;;5027570;28;19917;-70
2024/01/13 12:19:52;;;;;;;;;;;5.10;99.90;;;;;;5006333;28;19932;-69
2024/01/13 12:22:19;;;;;;;;;;;5.10;99.90;;;;;;5025980;28;20317;-70
2024/01/13 12:24:45;;;;;;;;;;;5.10;99.90;;;;;;5023158;28;19917;-69
2024/01/13 12:27:10;;;;;;;;;;;5.10;99.90;;;;;;5004513;28;19917;-70
2024/01/13 12:29:36;;;;;;;;;;;5.10;99.90;;;;;;5024320;28;20305;-69
2024/01/13 12:32:03;;;;;;;;;;;5.10;99.90;;;;;;5025533;28;20408;-69
2024/01/13 12:34:31;;;;;;;;;;;5.10;99.90;;;;;;5025141;28;19974;-69
2024/01/13 12:36:57;;;;;;;;;;;5.10;99.90;;;;;;5023971;28;19921;-69
2024/01/13 12:39:23;;;;;;;;;;;5.10;99.90;;;;;;5023869;28;19999;-69
2024/01/13 12:41:49;;;;;;;;;;;5.10;99.90;;;;;;5020662;28;19925;-69
2024/01/13 12:44:18;;;;;;;;;;;5.10;99.90;;;;;;5008914;28;19975;-69
2024/01/13 12:46:44;;;;;;;;;;;5.10;99.90;;;;;;5023791;28;19968;-70
2024/01/13 12:49:13;;;;;;;;;;;5.20;99.90;;;;;;5023472;28;19920;-70
2024/01/13 12:51:46;;;;;;;;;;;5.20;99.90;;;;;;5018122;28;19939;-69
2024/01/13 12:54:15;;;;;;;;;;;5.20;99.90;;;;;;5026099;28;19924;-70
2024/01/13 12:56:40;;;;;;;;;;;5.20;99.90;;;;;;5009610;28;19917;-70